Time;durP1;ratioP1;P1;durP2;ratioP2;P2;SDS_P1;SDS_P2;PMS_P1;PMS_P2;Temp;Humidity;BMP_temperature;BMP_pressure;BME280_temperature;BME280_humidity;BME280_pressure;Samples;Min_cycle;Max_cycle;Signal;HPM_P1;HPM_P2
2021/08/16 00:00:20;;;;;;;10.18;6.28;;;;;;;19.85;97.99;97470.47;5025942;28;20025;-59
2021/08/16 00:02:46;;;;;;;13.23;6.75;;;;;;;19.43;99.73;97479.31;5029176;28;20435;-60
2021/08/16 00:05:15;;;;;;;12.20;6.55;;;;;;;19.90;96.69;97470.91;5027191;28;20788;-59
2021/08/16 00:07:42;;;;;;;9.88;6.50;;;;;;;19.58;98.97;97463.09;5029448;28;20037;-59
2021/08/16 00:10:08;;;;;;;14.80;6.80;;;;;;;19.60;98.89;97461.16;5033059;28;20399;-59
2021/08/16 00:12:34;;;;;;;11.32;6.22;;;;;;;19.68;97.32;97458.66;5026409;28;20149;-60
2021/08/16 00:14:59;;;;;;;12.00;6.70;;;;;;;19.49;97.47;97458.59;5030005;28;20699;-60
2021/08/16 00:17:25;;;;;;;10.45;6.68;;;;;;;19.69;95.26;97460.34;5028609;28;20033;-60
2021/08/16 00:19:51;;;;;;;10.02;6.68;;;;;;;19.33;96.90;97457.25;5025553;28;20033;-60
2021/08/16 00:22:16;;;;;;;10.73;6.15;;;;;;;19.50;97.08;97447.03;5028559;28;20025;-59
2021/08/16 00:24:42;;;;;;;17.50;6.63;;;;;;;19.53;95.72;97446.78;5028188;28;20649;-60
2021/08/16 00:27:07;;;;;;;9.88;6.40;;;;;;;19.37;96.45;97439.31;5028186;28;20594;-59
2021/08/16 00:29:32;;;;;;;8.10;5.40;;;;;;;19.58;99.01;97441.94;5026969;28;20084;-59
2021/08/16 00:31:58;;;;;;;11.05;6.68;;;;;;;19.27;97.54;97434.00;5025420;28;20040;-61
2021/08/16 00:34:23;;;;;;;11.68;5.40;;;;;;;19.88;95.50;97440.25;5035218;28;20274;-64
2021/08/16 00:36:51;;;;;;;10.27;5.80;;;;;;;19.47;98.78;97431.44;5026065;28;20037;-63
2021/08/16 00:39:16;;;;;;;11.20;6.40;;;;;;;19.48;97.17;97430.47;5027530;28;20358;-64
2021/08/16 00:41:45;;;;;;;13.30;7.22;;;;;;;19.29;98.50;97428.56;5026071;28;20462;-63
2021/08/16 00:44:11;;;;;;;16.15;7.00;;;;;;;19.16;100.00;97428.78;5026902;28;20085;-64
2021/08/16 00:46:38;;;;;;;10.23;5.75;;;;;;;19.32;98.75;97430.94;5028572;28;20835;-66
2021/08/16 00:49:03;;;;;;;11.70;6.88;;;;;;;19.22;98.21;97431.72;5030178;28;20602;-64
2021/08/16 00:51:31;;;;;;;14.48;6.03;;;;;;;19.48;97.37;97431.28;5027585;28;20510;-63
2021/08/16 00:53:56;;;;;;;12.63;7.40;;;;;;;19.18;98.52;97427.69;5029152;28;20048;-63
2021/08/16 00:56:26;;;;;;;8.70;6.07;;;;;;;19.39;98.43;97417.09;5027812;28;20033;-63
2021/08/16 00:58:56;;;;;;;12.77;6.50;;;;;;;19.29;98.03;97418.00;5026164;28;20025;-65
2021/08/16 01:01:21;;;;;;;15.45;6.72;;;;;;;19.62;95.50;97422.19;5026077;28;20177;-65
2021/08/16 01:03:49;;;;;;;9.75;6.65;;;;;;;19.22;96.53;97413.22;5027253;28;20571;-65
2021/08/16 01:06:14;;;;;;;10.75;5.85;;;;;;;19.67;94.27;97409.38;5025249;28;20044;-64
2021/08/16 01:08:40;;;;;;;14.40;6.57;;;;;;;19.63;93.62;97413.28;5029648;28;20029;-66
2021/08/16 01:11:05;;;;;;;15.27;6.53;;;;;;;19.50;94.75;97407.38;5026577;28;21050;-64
2021/08/16 01:13:31;;;;;;;10.00;6.78;;;;;;;19.36;96.90;97405.94;5027403;28;20036;-65
2021/08/16 01:16:00;;;;;;;12.02;7.30;;;;;;;18.66;100.00;97414.38;5029393;28;20048;-65
2021/08/16 01:18:26;;;;;;;12.05;6.75;;;;;;;18.86;100.00;97409.28;5026856;28;20021;-64
2021/08/16 01:20:53;;;;;;;12.98;6.65;;;;;;;18.62;100.00;97412.97;5028295;28;20061;-66
2021/08/16 01:23:21;;;;;;;14.60;7.00;;;;;;;18.80;100.00;97407.97;5030289;28;20032;-65
2021/08/16 01:25:49;;;;;;;13.80;5.70;;;;;;;19.13;98.17;97400.78;5028982;28;20041;-64
2021/08/16 01:28:17;;;;;;;9.38;6.25;;;;;;;19.14;97.84;97402.47;5026574;28;20552;-66
2021/08/16 01:30:43;;;;;;;10.15;6.53;;;;;;;19.09;97.16;97394.09;5029860;28;20030;-66
2021/08/16 01:33:08;;;;;;;8.90;6.50;;;;;;;19.14;97.20;97388.44;5029072;28;20086;-64
2021/08/16 01:35:34;;;;;;;16.88;7.22;;;;;;;18.76;100.00;97395.13;5026010;28;20063;-64
2021/08/16 01:37:59;;;;;;;13.70;6.63;;;;;;;18.96;98.82;97398.75;5026334;28;20086;-66
2021/08/16 01:40:24;;;;;;;11.38;7.30;;;;;;;18.64;100.00;97400.47;5027875;28;20071;-63
2021/08/16 01:42:50;;;;;;;10.25;6.90;;;;;;;18.86;99.41;97404.00;5027332;28;20028;-64
2021/08/16 01:45:15;;;;;;;11.43;7.32;;;;;;;18.44;100.00;97393.38;5028567;28;20029;-64
2021/08/16 01:47:40;;;;;;;15.02;6.72;;;;;;;18.83;99.68;97404.25;5026014;28;20033;-65
2021/08/16 01:50:06;;;;;;;10.75;6.00;;;;;;;18.81;99.93;97398.25;5027321;28;20025;-66
2021/08/16 01:52:32;;;;;;;10.65;6.10;;;;;;;18.96;98.37;97401.41;5023877;28;20079;-64
2021/08/16 01:54:57;;;;;;;10.20;6.88;;;;;;;18.65;100.00;97399.50;5034958;28;20052;-63
2021/08/16 01:57:22;;;;;;;11.98;6.45;;;;;;;18.87;98.56;97400.38;5025138;28;20038;-64
2021/08/16 01:59:48;;;;;;;8.98;5.57;;;;;;;18.83;99.40;97412.16;5024471;28;20029;-65
2021/08/16 02:02:13;;;;;;;7.53;5.47;;;;;;;19.27;97.52;97402.28;5025666;28;20763;-65
2021/08/16 02:04:38;;;;;;;10.00;6.43;;;;;;;18.59;99.63;97397.38;5025645;28;20200;-66
2021/08/16 02:07:04;;;;;;;11.90;7.22;;;;;;;18.48;100.00;97394.78;5025104;28;20091;-64
2021/08/16 02:09:29;;;;;;;14.73;7.07;;;;;;;18.76;98.80;97392.50;5026957;28;20063;-65
2021/08/16 02:11:57;;;;;;;8.48;6.15;;;;;;;18.53;100.00;97389.97;5023169;28;20048;-64
2021/08/16 02:14:22;;;;;;;14.85;7.20;;;;;;;18.48;100.00;97389.50;5023964;28;20028;-65
2021/08/16 02:16:47;;;;;;;13.18;6.47;;;;;;;18.42;100.00;97390.03;5023327;28;20041;-66
2021/08/16 02:19:13;;;;;;;10.73;7.10;;;;;;;18.45;99.49;97384.47;5024347;28;20017;-64
2021/08/16 02:21:38;;;;;;;10.13;6.72;;;;;;;18.23;100.00;97381.00;5024001;28;20052;-64
2021/08/16 02:24:04;;;;;;;13.65;7.60;;;;;;;18.24;100.00;97380.00;5026244;28;20024;-64
2021/08/16 02:26:29;;;;;;;12.38;7.00;;;;;;;18.11;100.00;97372.25;5023316;28;20446;-67
2021/08/16 02:28:54;;;;;;;13.93;7.10;;;;;;;18.03;100.00;97373.84;5025984;28;20036;-64
2021/08/16 02:31:23;;;;;;;11.68;7.03;;;;;;;18.38;100.00;97380.66;5024674;28;20077;-64
2021/08/16 02:33:50;;;;;;;11.77;7.28;;;;;;;17.80;100.00;97379.16;5024460;28;20035;-66
2021/08/16 02:36:15;;;;;;;13.63;6.85;;;;;;;18.03;100.00;97376.47;5023875;28;20033;-64
2021/08/16 02:38:41;;;;;;;12.57;6.93;;;;;;;17.79;100.00;97381.91;5025600;28;20075;-64
2021/08/16 02:41:06;;;;;;;10.07;6.45;;;;;;;18.23;100.00;97378.34;5025585;28;20043;-66
2021/08/16 02:43:31;;;;;;;13.57;7.10;;;;;;;17.97;100.00;97369.91;5028189;28;20056;-64
2021/08/16 02:45:56;;;;;;;11.45;6.60;;;;;;;18.02;100.00;97380.94;5024344;28;20450;-64
2021/08/16 02:48:22;;;;;;;10.52;6.63;;;;;;;18.46;99.82;97386.16;5024176;28;20558;-65
2021/08/16 02:50:47;;;;;;;14.77;6.85;;;;;;;18.32;98.58;97389.09;5024805;28;20759;-65
2021/08/16 02:53:13;;;;;;;11.95;6.82;;;;;;;18.22;99.60;97389.84;5025642;28;20774;-66
2021/08/16 02:55:38;;;;;;;15.13;7.07;;;;;;;18.12;100.00;97391.56;5025336;28;20029;-64
2021/08/16 02:58:03;;;;;;;14.38;7.97;;;;;;;18.04;100.00;97391.34;5028155;28;20029;-67
2021/08/16 03:00:29;;;;;;;20.25;7.75;;;;;;;17.85;100.00;97392.03;5029469;28;20037;-65
2021/08/16 03:02:54;;;;;;;12.15;7.00;;;;;;;17.80;100.00;97394.97;5029413;28;20039;-65
2021/08/16 03:05:19;;;;;;;11.57;7.45;;;;;;;17.70;100.00;97402.78;5026615;28;20029;-65
2021/08/16 03:07:47;;;;;;;11.95;6.82;;;;;;;17.81;100.00;97396.66;5029614;28;20108;-64
2021/08/16 03:10:13;;;;;;;10.10;7.03;;;;;;;17.84;100.00;97395.56;5030372;28;20076;-65
2021/08/16 03:12:39;;;;;;;13.02;7.95;;;;;;;17.66;100.00;97397.88;5028376;28;20025;-66
2021/08/16 03:15:06;;;;;;;8.32;6.20;;;;;;;18.32;100.00;97383.81;5030006;28;20082;-66
2021/08/16 03:17:32;;;;;;;15.60;7.57;;;;;;;18.09;100.00;97391.84;5043771;28;20133;-66
2021/08/16 03:19:57;;;;;;;13.52;6.10;;;;;;;18.22;100.00;97389.84;5029311;28;20108;-64
2021/08/16 03:22:25;;;;;;;12.38;6.32;;;;;;;18.22;100.00;97395.13;5030336;28;20040;-64
2021/08/16 03:24:50;;;;;;;10.40;6.78;;;;;;;18.13;100.00;97390.63;5031281;28;20426;-64
2021/08/16 03:27:16;;;;;;;9.93;6.63;;;;;;;18.12;100.00;97404.75;5024761;28;20672;-64
2021/08/16 03:29:41;;;;;;;11.98;6.88;;;;;;;18.00;100.00;97400.50;5027104;28;20033;-65
2021/08/16 03:32:09;;;;;;;11.10;6.50;;;;;;;18.14;100.00;97402.84;5028210;28;20029;-64
2021/08/16 03:34:34;;;;;;;8.93;6.60;;;;;;;18.07;100.00;97396.41;5028879;28;20032;-65
2021/08/16 03:37:01;;;;;;;13.35;6.65;;;;;;;18.08;100.00;97387.50;5027229;28;20033;-67
2021/08/16 03:39:27;;;;;;;9.90;6.03;;;;;;;18.07;100.00;97391.94;5028073;28;20036;-64
2021/08/16 03:41:52;;;;;;;10.75;6.63;;;;;;;18.10;100.00;97381.16;5027293;28;20042;-64
2021/08/16 03:44:20;;;;;;;18.00;7.15;;;;;;;17.83;100.00;97368.38;5029350;28;20044;-64
2021/08/16 03:46:45;;;;;;;11.82;7.28;;;;;;;17.29;100.00;97375.25;5026178;28;20128;-64
2021/08/16 03:49:11;;;;;;;13.98;7.47;;;;;;;17.19;100.00;97369.03;5012379;28;20597;-64
2021/08/16 03:51:36;;;;;;;11.32;6.60;;;;;;;17.31;100.00;97364.59;5027313;28;20048;-67
2021/08/16 03:54:02;;;;;;;12.98;6.47;;;;;;;17.64;100.00;97362.88;5027121;28;20728;-67
2021/08/16 03:56:27;;;;;;;15.75;6.90;;;;;;;17.80;100.00;97359.84;5042680;28;20065;-64
2021/08/16 03:58:52;;;;;;;14.23;6.72;;;;;;;17.71;100.00;97356.16;5028060;28;20048;-64
2021/08/16 04:01:18;;;;;;;11.23;6.28;;;;;;;17.94;100.00;97356.13;5028317;28;20033;-65
2021/08/16 04:03:43;;;;;;;11.43;6.00;;;;;;;18.09;100.00;97358.34;5029703;28;20033;-64
2021/08/16 04:06:09;;;;;;;11.70;6.22;;;;;;;18.16;100.00;97353.41;5026951;28;20117;-63
2021/08/16 04:08:39;;;;;;;10.88;6.82;;;;;;;18.21;100.00;97351.22;5026099;28;20091;-64
2021/08/16 04:11:05;;;;;;;11.20;5.32;;;;;;;18.46;100.00;97354.47;5030695;28;20036;-67
2021/08/16 04:13:30;;;;;;;7.57;5.13;;;;;;;18.50;99.61;97345.31;5027487;28;20060;-64
2021/08/16 04:15:56;;;;;;;10.30;5.85;;;;;;;18.27;99.15;97345.44;5026597;28;20060;-66
2021/08/16 04:18:21;;;;;;;9.52;5.90;;;;;;;17.88;100.00;97357.47;5025746;28;20060;-64
2021/08/16 04:20:46;;;;;;;8.90;4.57;;;;;;;18.40;100.00;97371.66;5027895;28;20076;-66
2021/08/16 04:23:12;;;;;;;9.07;5.05;;;;;;;18.37;100.00;97371.09;5029329;28;20152;-66
2021/08/16 04:25:37;;;;;;;7.60;5.20;;;;;;;18.76;96.93;97381.91;5028269;28;20049;-64
2021/08/16 04:28:05;;;;;;;13.05;5.70;;;;;;;18.91;97.40;97385.09;5028689;28;20245;-64
2021/08/16 04:30:30;;;;;;;9.05;6.20;;;;;;;18.79;99.65;97371.09;5031274;28;20061;-63
2021/08/16 04:32:57;;;;;;;7.97;5.35;;;;;;;18.53;100.00;97368.84;5026933;28;20067;-64
2021/08/16 04:35:22;;;;;;;9.63;5.88;;;;;;;18.31;100.00;97377.72;5029595;28;20033;-64
2021/08/16 04:37:48;;;;;;;14.88;6.88;;;;;;;18.26;100.00;97375.44;5026288;28;20020;-65
2021/08/16 04:40:14;;;;;;;12.50;7.70;;;;;;;17.83;100.00;97378.91;5026749;28;20032;-64
2021/08/16 04:42:40;;;;;;;8.00;5.82;;;;;;;18.05;100.00;97382.50;5027534;28;20701;-64
2021/08/16 04:45:07;;;;;;;7.97;6.40;;;;;;;18.09;100.00;97381.28;5026905;28;20491;-65
2021/08/16 04:47:33;;;;;;;11.80;7.10;;;;;;;18.46;100.00;97379.06;5024785;28;20044;-63
2021/08/16 04:49:58;;;;;;;13.27;6.95;;;;;;;18.29;100.00;97383.13;5028276;28;20038;-64
2021/08/16 04:52:24;;;;;;;9.25;6.00;;;;;;;18.38;100.00;97389.44;5033202;28;20080;-66
2021/08/16 04:54:52;;;;;;;14.48;7.22;;;;;;;18.50;100.00;97383.13;5027651;28;20471;-63
2021/08/16 04:57:31;;;;;;;11.45;7.10;;;;;;;18.41;100.00;97393.63;5027595;28;20041;-67
2021/08/16 04:59:57;;;;;;;13.23;6.70;;;;;;;18.69;100.00;97408.84;5027466;28;20028;-65
2021/08/16 05:02:22;;;;;;;10.10;6.13;;;;;;;18.66;100.00;97422.31;5019902;28;20033;-64
2021/08/16 05:04:53;;;;;;;10.73;6.60;;;;;;;18.71;100.00;97413.16;5027855;28;20022;-63
2021/08/16 05:07:18;;;;;;;11.63;7.00;;;;;;;18.45;100.00;97413.53;5029726;28;20164;-63
2021/08/16 05:09:44;;;;;;;14.45;7.32;;;;;;;18.86;100.00;97417.22;5029693;28;20053;-65
2021/08/16 05:12:09;;;;;;;15.68;8.65;;;;;;;18.53;100.00;97413.75;5028396;28;20136;-64
2021/08/16 05:14:34;;;;;;;29.23;9.77;;;;;;;17.73;100.00;97430.72;5031019;28;20183;-64
2021/08/16 05:17:00;;;;;;;21.35;8.65;;;;;;;18.23;100.00;97425.88;5025784;28;20078;-64
2021/08/16 05:19:25;;;;;;;17.92;9.52;;;;;;;18.35;100.00;97425.81;5026738;28;20398;-64
2021/08/16 05:21:52;;;;;;;12.02;6.35;;;;;;;18.82;100.00;97435.13;5028131;28;20340;-64
2021/08/16 05:24:18;;;;;;;11.52;7.80;;;;;;;18.64;100.00;97447.19;5027705;28;20031;-66
2021/08/16 05:26:43;;;;;;;14.75;8.75;;;;;;;18.63;100.00;97435.75;5025744;28;20037;-64
2021/08/16 05:29:08;;;;;;;14.95;8.85;;;;;;;19.04;100.00;97435.94;5030558;28;20037;-65
2021/08/16 05:31:34;;;;;;;17.08;9.73;;;;;;;19.05;100.00;97433.16;5024699;28;20033;-64
2021/08/16 05:33:59;;;;;;;13.32;8.05;;;;;;;18.95;100.00;97437.56;5028438;28;20041;-65
2021/08/16 05:36:25;;;;;;;19.10;10.68;;;;;;;18.72;100.00;97434.16;5026822;28;20063;-64
2021/08/16 05:38:50;;;;;;;14.50;7.95;;;;;;;19.14;100.00;97422.81;5029229;28;20036;-66
2021/08/16 05:41:15;;;;;;;20.00;11.18;;;;;;;19.04;100.00;97438.59;5030041;28;20535;-63
2021/08/16 05:43:41;;;;;;;16.90;9.70;;;;;;;19.48;100.00;97430.47;5029708;28;20654;-65
2021/08/16 05:46:06;;;;;;;20.17;10.52;;;;;;;19.20;100.00;97428.38;5030577;28;20053;-64
2021/08/16 05:48:31;;;;;;;23.45;10.95;;;;;;;19.42;100.00;97424.72;5029773;28;20109;-64
2021/08/16 05:50:57;;;;;;;17.95;9.13;;;;;;;19.51;100.00;97443.44;5031659;28;20162;-65
2021/08/16 05:53:22;;;;;;;18.70;10.05;;;;;;;19.26;100.00;97474.59;5031092;28;20510;-66
2021/08/16 05:55:48;;;;;;;21.17;10.45;;;;;;;19.22;100.00;97462.63;5027002;28;20133;-67
2021/08/16 05:58:13;;;;;;;20.90;10.80;;;;;;;19.51;100.00;97452.19;5027715;28;20025;-66
2021/08/16 06:00:39;;;;;;;20.08;11.40;;;;;;;19.68;100.00;97461.31;5030559;28;20044;-68
2021/08/16 06:03:04;;;;;;;23.35;10.55;;;;;;;19.61;100.00;97473.41;5026194;28;20033;-65
2021/08/16 06:05:30;;;;;;;20.55;8.55;;;;;;;19.91;100.00;97474.41;5029222;28;20043;-67
2021/08/16 06:07:55;;;;;;;19.30;9.70;;;;;;;20.02;100.00;97471.66;5027649;28;20045;-65
2021/08/16 06:10:20;;;;;;;17.55;9.93;;;;;;;20.19;100.00;97484.22;5028256;28;20025;-65
2021/08/16 06:12:46;;;;;;;22.77;10.48;;;;;;;19.82;100.00;97492.75;5027313;28;20030;-67
2021/08/16 06:15:12;;;;;;;21.13;10.13;;;;;;;19.96;100.00;97493.34;5028092;28;20030;-65
2021/08/16 06:17:40;;;;;;;18.02;9.13;;;;;;;20.36;100.00;97490.66;5026823;28;20487;-68
2021/08/16 06:20:06;;;;;;;16.17;9.73;;;;;;;20.55;100.00;97494.34;5027367;28;20287;-66
2021/08/16 06:22:33;;;;;;;17.60;9.50;;;;;;;20.36;100.00;97505.72;5029473;28;20520;-66
2021/08/16 06:24:59;;;;;;;19.27;10.57;;;;;;;20.37;100.00;97504.75;5026720;28;20036;-67
2021/08/16 06:27:24;;;;;;;17.65;10.60;;;;;;;20.45;100.00;97496.94;5027586;28;20033;-66
2021/08/16 06:29:49;;;;;;;23.40;11.60;;;;;;;20.62;100.00;97494.63;5027465;28;20021;-66
2021/08/16 06:32:15;;;;;;;15.45;9.13;;;;;;;21.06;100.00;97497.69;5025099;28;20047;-66
2021/08/16 06:34:42;;;;;;;14.80;8.10;;;;;;;21.25;100.00;97496.84;5027135;28;20035;-66
2021/08/16 06:37:08;;;;;;;19.55;11.45;;;;;;;21.46;100.00;97499.34;5027705;28;20977;-65
2021/08/16 06:39:33;;;;;;;14.32;9.70;;;;;;;22.26;99.76;97491.78;5026932;28;20029;-65
2021/08/16 06:41:58;;;;;;;18.60;9.52;;;;;;;22.55;98.15;97496.03;5024064;28;20079;-67
2021/08/16 06:44:26;;;;;;;16.80;9.25;;;;;;;22.14;99.33;97483.94;5027489;28;20270;-66
2021/08/16 06:46:52;;;;;;;19.60;10.07;;;;;;;21.99;100.00;97496.06;5026209;28;20050;-65
2021/08/16 06:49:18;;;;;;;16.48;9.15;;;;;;;21.70;100.00;97496.19;5026790;28;20017;-66
2021/08/16 06:51:43;;;;;;;19.02;9.95;;;;;;;22.00;100.00;97496.88;5026183;28;20044;-66
2021/08/16 06:54:09;;;;;;;15.60;10.63;;;;;;;22.06;100.00;97496.31;5027474;28;20033;-65
2021/08/16 06:56:35;;;;;;;14.23;9.63;;;;;;;21.88;100.00;97496.25;5027507;28;20045;-66
2021/08/16 06:59:00;;;;;;;17.50;10.00;;;;;;;21.97;100.00;97506.00;5028053;28;20470;-68
2021/08/16 07:01:27;;;;;;;17.25;9.57;;;;;;;21.81;100.00;97513.75;5027350;28;20136;-66
2021/08/16 07:03:54;;;;;;;12.88;7.70;;;;;;;21.86;98.46;97520.28;5027222;28;20052;-68
2021/08/16 07:06:19;;;;;;;15.30;7.35;;;;;;;22.12;95.24;97517.78;5027285;28;20037;-66
2021/08/16 07:08:45;;;;;;;15.27;8.45;;;;;;;21.88;97.58;97525.47;5025629;28;20036;-66
2021/08/16 07:11:10;;;;;;;13.82;8.73;;;;;;;22.11;97.55;97524.09;5026348;28;20076;-66
2021/08/16 07:13:36;;;;;;;13.77;7.20;;;;;;;22.61;92.98;97536.16;5028252;28;20028;-66
2021/08/16 07:16:01;;;;;;;11.40;7.50;;;;;;;21.90;95.77;97544.72;5028569;28;20072;-69
2021/08/16 07:18:26;;;;;;;11.07;8.10;;;;;;;21.94;98.14;97543.44;5025404;28;20029;-68
2021/08/16 07:20:52;;;;;;;15.80;7.93;;;;;;;22.04;95.05;97554.06;5026713;28;20834;-66
2021/08/16 07:23:17;;;;;;;13.25;7.78;;;;;;;22.45;92.02;97559.91;5027216;28;20029;-66
2021/08/16 07:25:42;;;;;;;10.88;7.40;;;;;;;22.47;92.60;97564.06;5026062;28;20041;-67
2021/08/16 07:28:08;;;;;;;10.82;7.20;;;;;;;22.80;89.78;97569.75;5026980;28;20629;-68
2021/08/16 07:30:34;;;;;;;11.43;7.82;;;;;;;22.73;90.27;97573.97;5026650;28;20045;-67
2021/08/16 07:33:00;;;;;;;11.20;7.45;;;;;;;22.66;90.24;97573.75;5025565;28;20136;-66
2021/08/16 07:35:25;;;;;;;10.65;7.50;;;;;;;22.71;90.45;97573.28;5030661;28;21197;-66
2021/08/16 07:37:51;;;;;;;11.52;7.28;;;;;;;22.57;90.68;97579.13;5028068;28;20029;-67
2021/08/16 07:40:17;;;;;;;14.32;7.63;;;;;;;22.59;91.50;97566.50;5029343;28;20873;-65
2021/08/16 07:42:43;;;;;;;9.65;6.45;;;;;;;22.82;88.57;97557.13;5027458;28;20048;-66
2021/08/16 07:45:09;;;;;;;14.55;7.32;;;;;;;22.86;88.95;97558.50;5030210;28;20426;-66
2021/08/16 07:47:34;;;;;;;13.50;6.78;;;;;;;23.20;86.08;97557.84;5030948;28;20052;-66
2021/08/16 07:50:00;;;;;;;9.85;7.22;;;;;;;23.27;85.05;97553.59;5030403;28;20043;-65
2021/08/16 07:52:25;;;;;;;14.38;7.13;;;;;;;23.86;81.78;97555.69;5031325;28;20514;-65
2021/08/16 07:54:54;;;;;;;9.65;6.15;;;;;;;25.35;76.43;97558.66;5028961;28;20060;-68
2021/08/16 07:57:20;;;;;;;11.23;6.70;;;;;;;23.95;79.97;97569.88;5028598;28;20148;-66
2021/08/16 07:59:45;;;;;;;11.48;6.65;;;;;;;24.04;81.52;97563.59;5030063;28;20025;-67
2021/08/16 08:02:10;;;;;;;11.13;6.73;;;;;;;24.18;77.86;97565.66;5029850;28;20426;-67
2021/08/16 08:04:35;;;;;;;10.30;6.15;;;;;;;23.89;77.81;97568.66;5030550;28;20268;-66
2021/08/16 08:07:01;;;;;;;11.77;6.72;;;;;;;23.23;82.32;97557.56;5031953;28;20530;-65
2021/08/16 08:09:27;;;;;;;22.33;6.38;;;;;;;24.08;78.34;97554.31;5029823;28;20068;-64
2021/08/16 08:11:52;;;;;;;10.02;5.70;;;;;;;24.39;75.36;97553.75;5029179;28;20259;-65
2021/08/16 08:14:18;;;;;;;7.82;4.90;;;;;;;25.70;71.39;97566.47;5028355;28;20025;-64
2021/08/16 08:16:43;;;;;;;8.57;5.10;;;;;;;25.50;70.46;97558.81;5028109;28;20037;-66
2021/08/16 08:19:08;;;;;;;8.73;4.65;;;;;;;24.72;70.74;97568.06;5027812;28;20025;-65
2021/08/16 08:21:34;;;;;;;10.27;5.03;;;;;;;24.29;74.47;97566.38;5031629;28;20126;-65
2021/08/16 08:23:59;;;;;;;8.40;4.80;;;;;;;24.55;73.42;97561.00;5028739;28;20063;-65
2021/08/16 08:26:26;;;;;;;6.60;4.57;;;;;;;24.77;71.76;97568.38;5028745;28;20499;-65
2021/08/16 08:28:52;;;;;;;7.18;4.25;;;;;;;24.29;71.78;97567.22;5029219;28;20589;-66
2021/08/16 08:31:17;;;;;;;9.50;4.68;;;;;;;24.38;72.81;97574.25;5028251;28;20517;-67
2021/08/16 08:33:42;;;;;;;8.15;4.68;;;;;;;23.67;75.32;97568.19;5030941;28;20032;-64
2021/08/16 08:36:08;;;;;;;7.93;4.45;;;;;;;23.33;75.37;97570.75;5028152;28;20080;-65
2021/08/16 08:38:33;;;;;;;7.93;4.55;;;;;;;23.11;76.87;97572.06;5029409;28;20431;-64
2021/08/16 08:41:00;;;;;;;8.85;4.80;;;;;;;23.37;76.16;97576.59;5028215;28;20045;-65
2021/08/16 08:43:26;;;;;;;9.80;4.30;;;;;;;23.44;77.42;97575.00;5030313;28;20396;-66
2021/08/16 08:45:55;;;;;;;8.15;4.53;;;;;;;23.52;76.75;97583.03;5031373;28;20667;-65
2021/08/16 08:48:21;;;;;;;7.97;4.32;;;;;;;23.73;76.12;97587.16;5029285;28;20719;-65
2021/08/16 08:50:48;;;;;;;7.60;4.40;;;;;;;23.04;77.53;97589.63;5024508;28;20621;-65
2021/08/16 08:53:14;;;;;;;7.90;4.70;;;;;;;24.10;72.75;97591.44;5029602;28;20029;-65
2021/08/16 08:55:39;;;;;;;9.85;4.18;;;;;;;24.99;68.04;97593.59;5029198;28;20051;-65
2021/08/16 08:58:06;;;;;;;7.47;4.30;;;;;;;24.05;69.94;97595.41;5027312;28;20029;-65
2021/08/16 09:00:33;;;;;;;6.00;3.90;;;;;;;25.35;67.20;97589.84;5031328;28;20110;-66
2021/08/16 09:03:00;;;;;;;7.88;4.20;;;;;;;25.64;66.36;97589.34;5029418;28;20033;-67
2021/08/16 09:05:25;;;;;;;6.15;3.75;;;;;;;26.22;64.65;97587.41;5028838;28;20129;-66
2021/08/16 09:07:54;;;;;;;6.55;3.70;;;;;;;25.06;66.02;97575.13;5027392;28;20547;-65
2021/08/16 09:10:22;;;;;;;9.30;4.05;;;;;;;26.33;62.33;97578.19;5027872;28;20716;-65
2021/08/16 09:12:47;;;;;;;7.32;4.20;;;;;;;25.57;58.24;97583.84;5027932;28;20033;-64
2021/08/16 09:15:25;;;;;;;8.27;4.07;;;;;;;25.91;57.86;97584.63;5030845;28;20079;-64
2021/08/16 09:17:52;;;;;;;6.38;4.03;;;;;;;27.39;54.27;97590.16;5025240;28;20033;-66
2021/08/16 09:20:24;;;;;;;7.72;4.72;;;;;;;27.96;50.13;97577.28;5026983;28;20029;-66
2021/08/16 09:23:00;;;;;;;8.18;4.43;;;;;;;27.52;48.82;97572.66;5030944;28;20422;-68
2021/08/16 09:25:29;;;;;;;7.35;4.35;;;;;;;25.95;51.76;97581.47;5028553;28;20041;-65
2021/08/16 09:27:56;;;;;;;7.95;4.47;;;;;;;27.72;46.99;97573.78;5026847;28;20025;-65
2021/08/16 09:30:34;;;;;;;6.63;4.05;;;;;;;27.94;46.50;97582.81;5027156;28;21738;-67
2021/08/16 09:33:15;;;;;;;7.70;4.03;;;;;;;28.63;45.42;97579.00;5027298;28;20025;-67
2021/08/16 09:35:55;;;;;;;7.47;4.10;;;;;;;28.99;43.74;97579.00;5028289;28;20045;-67
2021/08/16 09:38:49;;;;;;;10.70;4.00;;;;;;;30.23;41.92;97583.16;5027056;28;20035;-67
2021/08/16 09:41:22;;;;;;;7.00;4.07;;;;;;;28.77;45.47;97583.53;5028177;28;20039;-67
2021/08/16 09:43:49;;;;;;;7.18;4.10;;;;;;;27.95;45.49;97583.66;5026770;28;20033;-67
2021/08/16 09:46:16;;;;;;;7.35;3.90;;;;;;;28.19;46.44;97594.09;5025966;28;20033;-65
2021/08/16 09:48:42;;;;;;;6.97;4.00;;;;;;;28.41;44.14;97583.44;5026238;28;20056;-67
2021/08/16 09:51:07;;;;;;;7.03;3.72;;;;;;;28.32;44.78;97587.25;5027731;28;20088;-66
2021/08/16 09:53:33;;;;;;;7.35;4.32;;;;;;;27.87;48.09;97588.03;5028713;28;20036;-67
2021/08/16 09:56:01;;;;;;;7.00;4.10;;;;;;;28.00;45.55;97587.44;5026925;28;20037;-66
2021/08/16 09:58:28;;;;;;;8.65;4.30;;;;;;;29.23;41.96;97574.31;5026595;28;20052;-66
2021/08/16 10:00:53;;;;;;;6.63;4.00;;;;;;;29.08;43.20;97565.44;5025955;28;20045;-66
2021/08/16 10:03:19;;;;;;;7.22;4.25;;;;;;;27.60;44.38;97576.06;5028407;28;20021;-67
2021/08/16 10:05:47;;;;;;;7.82;4.30;;;;;;;29.09;43.64;97576.00;5029582;28;20435;-66
2021/08/16 10:08:15;;;;;;;8.15;4.00;;;;;;;28.60;43.06;97568.66;5026650;28;20021;-66
2021/08/16 10:10:41;;;;;;;9.00;4.30;;;;;;;27.91;45.77;97579.69;5027518;28;20041;-66
2021/08/16 10:13:09;;;;;;;8.02;4.45;;;;;;;28.13;45.22;97577.94;5029801;28;20396;-65
2021/08/16 10:15:38;;;;;;;8.27;4.32;;;;;;;28.94;42.54;97573.38;5027233;28;20135;-66
2021/08/16 10:18:10;;;;;;;12.25;4.22;;;;;;;28.47;43.15;97577.31;5027169;28;20026;-65
2021/08/16 10:20:37;;;;;;;7.53;4.10;;;;;;;27.99;46.32;97575.06;5028259;28;20041;-65
2021/08/16 10:23:02;;;;;;;7.78;4.78;;;;;;;27.28;45.53;97571.84;5027801;28;20033;-65
2021/08/16 10:25:28;;;;;;;7.65;4.38;;;;;;;27.84;43.65;97577.69;5026966;28;20701;-66
2021/08/16 10:28:03;;;;;;;9.18;4.15;;;;;;;29.03;43.28;97566.84;5026085;28;20403;-67
2021/08/16 10:30:28;;;;;;;7.30;4.20;;;;;;;28.72;42.50;97558.28;5027292;28;20037;-66
2021/08/16 10:33:02;;;;;;;6.57;4.18;;;;;;;29.12;41.81;97564.88;5030600;28;20075;-69
2021/08/16 10:35:39;;;;;;;6.93;3.90;;;;;;;27.53;44.58;97552.88;5027403;28;20071;-68
2021/08/16 10:38:12;;;;;;;7.75;4.07;;;;;;;27.67;43.10;97550.22;5026170;28;20028;-66
2021/08/16 10:40:49;;;;;;;8.48;4.25;;;;;;;28.09;42.33;97542.63;5026235;28;20487;-66
2021/08/16 10:43:16;;;;;;;11.13;4.30;;;;;;;28.19;42.80;97537.78;5027737;28;20034;-65
2021/08/16 10:45:52;;;;;;;7.60;3.75;;;;;;;27.14;44.77;97543.13;5026868;28;20040;-65
2021/08/16 10:48:26;;;;;;;10.63;4.10;;;;;;;27.16;46.00;97530.41;5027185;28;20033;-65
2021/08/16 10:51:08;;;;;;;7.65;4.20;;;;;;;27.01;45.02;97531.19;5025307;28;20053;-67
2021/08/16 10:53:45;;;;;;;;;;;;;;;26.00;45.91;97540.03;5027404;28;20040;-65
2021/08/16 10:56:19;;;;;;;6.38;3.90;;;;;;;26.12;45.17;97534.16;5025829;28;19924;-65
2021/08/16 10:58:45;;;;;;;6.57;3.53;;;;;;;26.83;45.34;97541.34;5025780;28;20045;-67
2021/08/16 11:01:24;;;;;;;8.07;3.65;;;;;;;26.66;46.17;97538.75;5026029;28;20594;-66
2021/08/16 11:04:01;;;;;;;6.55;3.60;;;;;;;26.67;45.24;97535.09;5030427;28;20048;-66
2021/08/16 11:06:27;;;;;;;7.70;3.90;;;;;;;26.20;45.60;97545.81;5025677;28;20042;-68
2021/08/16 11:09:03;;;;;;;12.43;3.92;;;;;;;25.88;46.30;97548.41;5041856;28;20044;-65
2021/08/16 11:11:32;;;;;;;8.27;4.20;;;;;;;26.48;45.07;97540.84;5026417;28;20029;-65
2021/08/16 11:14:07;;;;;;;8.70;4.28;;;;;;;26.28;46.01;97549.31;5026112;28;20435;-65
2021/08/16 11:16:33;;;;;;;7.53;4.20;;;;;;;26.60;44.74;97531.47;5022465;28;20071;-66
2021/08/16 11:18:58;;;;;;;9.77;3.92;;;;;;;26.09;45.66;97533.66;5029152;28;20053;-67
2021/08/16 11:21:25;;;;;;;7.32;3.97;;;;;;;26.40;46.22;97535.56;5030234;28;20549;-66